Time;durP1;ratioP1;P1;durP2;ratioP2;P2;SDS_P1;SDS_P2;PMS_P1;PMS_P2;Temp;Humidity;BMP_temperature;BMP_pressure;BME280_temperature;BME280_humidity;BME280_pressure;Samples;Min_cycle;Max_cycle;Signal;HPM_P1;HPM_P2
2022/10/20 00:02:23;;;;;;;9.85;5.80;;;7.20;99.90;;;;;;6272897;22;20025;-84
2022/10/20 00:04:49;;;;;;;11.63;5.25;;;7.20;99.90;;;;;;6245191;22;20011;-84
2022/10/20 00:07:14;;;;;;;12.00;5.60;;;7.20;99.90;;;;;;6244929;22;20042;-84
2022/10/20 00:09:40;;;;;;;11.10;5.70;;;7.20;99.90;;;;;;6272116;22;20062;-84
2022/10/20 00:12:05;;;;;;;12.30;5.28;;;7.20;99.90;;;;;;6245497;22;20133;-84
2022/10/20 00:14:31;;;;;;;12.18;5.53;;;7.10;99.90;;;;;;6244654;22;20039;-84
2022/10/20 00:16:58;;;;;;;10.02;5.57;;;7.10;99.90;;;;;;6244840;22;20020;-84
2022/10/20 00:19:24;;;;;;;11.50;5.63;;;7.10;99.90;;;;;;6245078;22;20016;-84
2022/10/20 00:21:50;;;;;;;10.85;5.68;;;7.10;99.90;;;;;;6245375;22;20019;-84
2022/10/20 00:24:15;;;;;;;10.50;5.50;;;7.10;99.90;;;;;;6219122;22;20043;-84
2022/10/20 00:26:41;;;;;;;12.82;5.63;;;7.00;99.90;;;;;;6245305;22;20086;-84
2022/10/20 00:29:07;;;;;;;13.13;5.45;;;7.00;99.90;;;;;;6245368;22;20053;-84
2022/10/20 00:31:32;;;;;;;8.93;5.10;;;7.00;99.90;;;;;;6245414;22;20451;-84
2022/10/20 00:33:58;;;;;;;11.60;5.40;;;7.00;99.90;;;;;;6244804;22;20035;-83
2022/10/20 00:36:24;;;;;;;10.02;5.90;;;6.90;99.90;;;;;;6219351;22;20091;-83
2022/10/20 00:38:50;;;;;;;11.45;5.57;;;6.90;99.90;;;;;;6271625;22;20007;-83
2022/10/20 00:41:18;;;;;;;11.93;5.93;;;6.90;99.90;;;;;;6271772;22;20065;-84
2022/10/20 00:43:53;;;;;;;9.68;5.35;;;6.90;99.90;;;;;;6244688;22;20065;-84
2022/10/20 00:46:36;;;;;;;15.65;6.07;;;6.90;99.90;;;;;;6272202;22;20454;-84
2022/10/20 00:49:18;;;;;;;8.85;5.20;;;6.80;99.90;;;;;;6244774;22;20027;-83
2022/10/20 00:51:44;;;;;;;10.18;5.78;;;6.80;99.90;;;;;;6244449;22;20360;-84
2022/10/20 00:54:15;;;;;;;13.55;5.72;;;6.80;99.90;;;;;;6244690;22;20020;-84
2022/10/20 00:56:43;;;;;;;10.93;5.57;;;6.80;99.90;;;;;;6244646;22;20022;-84
2022/10/20 00:59:11;;;;;;;11.88;5.50;;;6.80;99.90;;;;;;6244507;22;20015;-84
2022/10/20 01:01:38;;;;;;;10.52;6.25;;;6.70;99.90;;;;;;6244513;22;20022;-84
2022/10/20 01:04:03;;;;;;;15.35;5.55;;;6.70;99.90;;;;;;6244083;22;20537;-84
2022/10/20 01:06:29;;;;;;;13.30;5.40;;;6.70;99.90;;;;;;6244141;22;20457;-83
2022/10/20 01:08:56;;;;;;;11.70;5.90;;;6.70;99.90;;;;;;6244948;22;20019;-83
2022/10/20 01:11:24;;;;;;;12.98;5.70;;;6.60;99.90;;;;;;6271708;22;20141;-83
2022/10/20 01:13:59;;;;;;;10.95;5.75;;;6.60;99.90;;;;;;6271888;22;20044;-84
2022/10/20 01:16:35;;;;;;;12.05;5.35;;;6.60;99.90;;;;;;6272382;22;20016;-84
2022/10/20 01:19:17;;;;;;;11.98;6.07;;;6.60;99.90;;;;;;6271582;22;20008;-84
2022/10/20 01:22:31;;;;;;;11.45;5.53;;;6.60;99.90;;;;;;6244168;22;20092;-84
2022/10/20 01:25:47;;;;;;;13.05;6.05;;;6.50;99.90;;;;;;6244761;22;20444;-84
2022/10/20 01:28:37;;;;;;;11.75;5.70;;;6.50;99.90;;;;;;6118711;23;20414;-83
2022/10/20 01:31:11;;;;;;;15.32;6.30;;;6.50;99.90;;;;;;6117280;23;20093;-84
2022/10/20 01:34:05;;;;;;;12.50;5.75;;;6.50;99.90;;;;;;6117645;23;20018;-84
2022/10/20 01:36:42;;;;;;;13.48;6.15;;;6.50;99.90;;;;;;6117616;23;20025;-84
2022/10/20 01:39:15;;;;;;;10.45;5.55;;;6.50;99.90;;;;;;6119060;23;20077;-84
2022/10/20 01:42:16;;;;;;;12.38;5.97;;;6.40;99.90;;;;;;6118199;23;20521;-84
2022/10/20 01:44:43;;;;;;;13.00;5.47;;;6.40;99.90;;;;;;6073747;23;20014;-84
2022/10/20 01:47:10;;;;;;;10.52;5.55;;;6.40;99.90;;;;;;6119808;23;20509;-84
2022/10/20 01:49:39;;;;;;;11.77;5.30;;;6.40;99.90;;;;;;6095135;23;20522;-84
2022/10/20 01:52:05;;;;;;;9.27;4.97;;;6.40;99.90;;;;;;6119837;23;20013;-84
2022/10/20 01:54:30;;;;;;;11.50;5.30;;;6.40;99.90;;;;;;6118558;23;20026;-84
2022/10/20 01:57:14;;;;;;;9.25;5.85;;;6.40;99.90;;;;;;6119901;23;20057;-84
2022/10/20 02:00:13;;;;;;;10.68;5.22;;;6.40;99.90;;;;;;6119976;23;20052;-84
2022/10/20 02:02:52;;;;;;;9.60;5.45;;;6.30;99.90;;;;;;6146571;22;20096;-84
2022/10/20 02:05:30;;;;;;;9.82;5.35;;;6.40;99.90;;;;;;6272479;22;20012;-83
2022/10/20 02:08:06;;;;;;;12.63;5.85;;;6.30;99.90;;;;;;6272854;22;20019;-84
2022/10/20 02:10:40;;;;;;;11.15;5.65;;;6.30;99.90;;;;;;6273516;22;20090;-83
2022/10/20 02:13:06;;;;;;;;;;;6.30;99.90;;;;;;6246484;22;20058;-84
2022/10/20 02:15:37;;;;;;;10.50;5.13;;;6.30;99.90;;;;;;6245645;22;19915;-83
2022/10/20 02:18:07;;;;;;;12.88;5.68;;;6.30;99.90;;;;;;6245341;22;20004;-84
2022/10/20 02:20:33;;;;;;;13.20;6.28;;;6.30;99.90;;;;;;6272907;22;20047;-84
2022/10/20 02:23:01;;;;;;;14.23;5.63;;;6.30;99.90;;;;;;6245522;22;20015;-83
2022/10/20 02:25:29;;;;;;;11.43;5.45;;;6.20;99.90;;;;;;6272406;22;20518;-83
2022/10/20 02:27:56;;;;;;;8.88;5.40;;;6.30;99.90;;;;;;6245826;22;20026;-84
2022/10/20 02:30:22;;;;;;;11.13;5.90;;;6.20;99.90;;;;;;6219717;22;20026;-84
2022/10/20 02:32:51;;;;;;;10.55;5.88;;;6.20;99.90;;;;;;6273219;22;20075;-83
2022/10/20 02:35:25;;;;;;;15.65;6.30;;;6.30;99.90;;;;;;6272033;22;20344;-83
2022/10/20 02:37:50;;;;;;;11.52;6.25;;;6.20;99.90;;;;;;6245402;22;20030;-84
2022/10/20 02:40:16;;;;;;;10.25;5.35;;;6.20;99.90;;;;;;6272416;22;20380;-84
2022/10/20 02:42:42;;;;;;;11.68;5.35;;;6.20;99.90;;;;;;6245447;22;20008;-84
2022/10/20 02:45:08;;;;;;;12.63;5.53;;;6.20;99.90;;;;;;6245099;22;20020;-84
2022/10/20 02:47:33;;;;;;;9.60;5.60;;;6.20;99.90;;;;;;6245851;22;20518;-84
2022/10/20 02:50:00;;;;;;;12.15;5.68;;;6.20;99.90;;;;;;6245086;22;20094;-83
2022/10/20 02:52:26;;;;;;;13.35;5.13;;;6.20;99.90;;;;;;6272502;22;20090;-83
2022/10/20 02:54:52;;;;;;;11.05;5.70;;;6.10;99.90;;;;;;6245160;22;20120;-84
2022/10/20 02:57:17;;;;;;;11.18;5.70;;;6.10;99.90;;;;;;6245685;22;20008;-84
2022/10/20 02:59:43;;;;;;;11.23;5.78;;;6.10;99.90;;;;;;6244828;22;20344;-84
2022/10/20 03:02:08;;;;;;;11.55;6.18;;;6.10;99.90;;;;;;6271913;22;20018;-84
2022/10/20 03:04:34;;;;;;;12.68;5.95;;;6.10;99.90;;;;;;6272194;22;20065;-84
2022/10/20 03:07:00;;;;;;;15.43;6.45;;;6.10;99.90;;;;;;6271802;22;20087;-84
2022/10/20 03:09:25;;;;;;;11.80;6.15;;;6.10;99.90;;;;;;6271643;22;20100;-83
2022/10/20 03:11:51;;;;;;;11.07;5.78;;;6.10;99.90;;;;;;6272945;22;20086;-84
2022/10/20 03:14:16;;;;;;;11.25;6.03;;;6.10;99.90;;;;;;6271382;22;20083;-83
2022/10/20 03:16:42;;;;;;;14.27;5.97;;;6.10;99.90;;;;;;6244432;22;20030;-84
2022/10/20 03:19:08;;;;;;;12.88;6.18;;;6.00;99.90;;;;;;6272069;22;20007;-84
2022/10/20 03:21:33;;;;;;;11.13;6.15;;;6.00;99.90;;;;;;6245054;22;20019;-83
2022/10/20 03:23:59;;;;;;;17.40;6.93;;;6.00;99.90;;;;;;6244780;22;20031;-84
2022/10/20 03:26:25;;;;;;;12.40;6.03;;;6.00;99.90;;;;;;6272180;22;20011;-84
2022/10/20 03:28:50;;;;;;;13.05;6.72;;;6.00;99.90;;;;;;6244387;22;20356;-83
2022/10/20 03:31:16;;;;;;;11.57;6.32;;;6.00;99.90;;;;;;6270963;22;20370;-83
2022/10/20 03:33:42;;;;;;;10.23;6.70;;;6.00;99.90;;;;;;6244873;22;20015;-84
2022/10/20 03:36:08;;;;;;;12.10;6.20;;;6.00;99.90;;;;;;6243817;22;20058;-84
2022/10/20 03:38:33;;;;;;;12.52;6.47;;;6.00;99.90;;;;;;6245193;22;20279;-84
2022/10/20 03:40:59;;;;;;;16.00;6.70;;;6.00;99.90;;;;;;6245395;22;20011;-83
2022/10/20 03:43:25;;;;;;;13.32;7.05;;;6.00;99.90;;;;;;6219257;22;20019;-83
2022/10/20 03:45:59;;;;;;;12.52;7.32;;;6.00;99.90;;;;;;6218938;22;20047;-83
2022/10/20 03:48:24;;;;;;;11.32;6.60;;;6.00;99.90;;;;;;6245026;22;20022;-83
2022/10/20 03:50:50;;;;;;;15.00;7.15;;;6.00;99.90;;;;;;6245003;22;20012;-84
2022/10/20 03:53:16;;;;;;;14.65;7.70;;;6.00;99.90;;;;;;6271897;22;20061;-84
2022/10/20 03:55:41;;;;;;;12.88;7.72;;;6.00;99.90;;;;;;6272294;22;20087;-82
2022/10/20 03:58:07;;;;;;;13.00;6.97;;;6.00;99.90;;;;;;6245210;22;20023;-84
2022/10/20 04:00:33;;;;;;;15.00;7.93;;;6.00;99.90;;;;;;6271641;22;20007;-84
2022/10/20 04:02:58;;;;;;;14.70;7.80;;;6.00;99.90;;;;;;6243997;22;20161;-84
2022/10/20 04:05:24;;;;;;;13.77;7.90;;;6.00;99.90;;;;;;6244715;22;20078;-83
2022/10/20 04:07:49;;;;;;;15.95;8.25;;;6.00;99.90;;;;;;6244215;22;20091;-84
2022/10/20 04:10:16;;;;;;;13.38;7.68;;;6.00;99.90;;;;;;6245371;22;20015;-83
2022/10/20 04:12:42;;;;;;;16.15;8.70;;;6.00;99.90;;;;;;6244477;22;20069;-84
2022/10/20 04:15:08;;;;;;;15.35;8.93;;;6.00;99.90;;;;;;6243707;22;20015;-83
2022/10/20 04:17:35;;;;;;;15.15;8.20;;;6.00;99.90;;;;;;6243978;22;20383;-84
2022/10/20 04:20:02;;;;;;;14.60;8.68;;;6.00;99.90;;;;;;6243398;22;20019;-83
2022/10/20 04:22:28;;;;;;;13.60;8.30;;;6.00;99.90;;;;;;6244760;22;20047;-84
2022/10/20 04:24:54;;;;;;;19.63;10.00;;;6.00;99.90;;;;;;6243636;22;20027;-84
2022/10/20 04:27:19;;;;;;;16.17;9.02;;;6.00;99.90;;;;;;6271716;22;20011;-84
2022/10/20 04:29:46;;;;;;;16.80;9.30;;;6.00;99.90;;;;;;6218919;22;20086;-83
2022/10/20 04:32:12;;;;;;;15.55;9.48;;;6.00;99.90;;;;;;6271575;22;20023;-83
2022/10/20 04:34:38;;;;;;;15.63;8.80;;;6.00;99.90;;;;;;6244434;22;20015;-83
2022/10/20 04:37:04;;;;;;;15.02;9.77;;;6.00;99.90;;;;;;6271702;22;20022;-84
2022/10/20 04:39:29;;;;;;;17.30;9.20;;;6.10;99.90;;;;;;6244348;22;20024;-84
2022/10/20 04:41:55;;;;;;;15.95;9.18;;;5.70;99.90;;;;;;6271507;22;20465;-84
2022/10/20 04:44:21;;;;;;;16.15;9.85;;;6.10;99.90;;;;;;6271173;22;20018;-84
2022/10/20 04:46:46;;;;;;;17.38;9.95;;;6.10;99.90;;;;;;6271181;22;20039;-84
2022/10/20 04:49:12;;;;;;;17.88;9.13;;;6.30;99.90;;;;;;6219125;22;20044;-83
2022/10/20 04:51:38;;;;;;;19.30;9.98;;;6.10;99.90;;;;;;6244400;22;20046;-84
2022/10/20 04:54:04;;;;;;;15.15;10.25;;;6.10;99.90;;;;;;6244442;22;20023;-84
2022/10/20 04:56:29;;;;;;;19.90;10.27;;;6.10;99.90;;;;;;6271205;22;20452;-84
2022/10/20 04:58:57;;;;;;;18.88;10.10;;;6.10;99.90;;;;;;6243546;22;20023;-84
2022/10/20 05:01:25;;;;;;;20.25;10.60;;;6.10;99.90;;;;;;6243703;22;20022;-85
2022/10/20 05:03:51;;;;;;;16.35;10.00;;;6.10;99.90;;;;;;6244222;22;20012;-84
2022/10/20 05:06:18;;;;;;;16.58;10.18;;;6.10;99.90;;;;;;6271952;22;20015;-84
2022/10/20 05:08:46;;;;;;;16.88;11.07;;;6.10;99.90;;;;;;6271445;22;20094;-84
2022/10/20 05:11:12;;;;;;;17.08;10.10;;;6.10;99.90;;;;;;6271664;22;20012;-84
2022/10/20 05:13:38;;;;;;;16.55;11.32;;;6.10;99.90;;;;;;6244432;22;20015;-84
2022/10/20 05:16:05;;;;;;;16.35;10.40;;;6.10;99.90;;;;;;6273136;22;20305;-84
2022/10/20 05:18:31;;;;;;;17.40;10.85;;;6.10;99.90;;;;;;6221034;22;20011;-84
2022/10/20 05:20:57;;;;;;;16.20;10.38;;;6.10;99.90;;;;;;6246116;22;20008;-84
2022/10/20 05:23:23;;;;;;;21.98;10.80;;;6.10;99.90;;;;;;6245498;22;20014;-83
2022/10/20 05:25:49;;;;;;;18.58;11.38;;;6.20;99.90;;;;;;6244670;22;20019;-84
2022/10/20 05:28:15;;;;;;;20.75;10.80;;;6.10;99.90;;;;;;6272130;22;20399;-84
2022/10/20 05:30:40;;;;;;;23.65;12.10;;;6.10;99.90;;;;;;6245277;22;20015;-84
2022/10/20 05:33:06;;;;;;;19.02;11.77;;;6.10;99.90;;;;;;6245475;22;20346;-83
2022/10/20 05:35:31;;;;;;;19.05;11.35;;;6.10;99.90;;;;;;6272356;22;20016;-84
2022/10/20 05:37:57;;;;;;;20.17;11.88;;;6.10;99.90;;;;;;6219953;22;20011;-84
2022/10/20 05:40:23;;;;;;;19.30;11.27;;;6.10;99.90;;;;;;6245014;22;20011;-84
2022/10/20 05:42:48;;;;;;;18.95;11.30;;;6.10;99.90;;;;;;6270907;22;20012;-84
2022/10/20 05:45:14;;;;;;;21.38;12.38;;;6.10;99.90;;;;;;6272896;22;20051;-84
2022/10/20 05:47:41;;;;;;;24.08;11.60;;;6.10;99.90;;;;;;6272358;22;20019;-85
2022/10/20 05:50:08;;;;;;;19.35;11.95;;;6.10;99.90;;;;;;6272394;22;20076;-85
2022/10/20 05:52:34;;;;;;;18.95;12.85;;;6.00;99.90;;;;;;6272767;22;20012;-83
2022/10/20 05:55:00;;;;;;;20.58;11.98;;;6.00;99.90;;;;;;6244883;22;20016;-84
2022/10/20 05:57:26;;;;;;;21.10;11.93;;;6.00;99.90;;;;;;6271811;22;20016;-84
2022/10/20 05:59:51;;;;;;;19.42;12.02;;;6.00;99.90;;;;;;6244515;22;20015;-84
2022/10/20 06:02:17;;;;;;;21.00;11.52;;;6.00;99.90;;;;;;6271765;22;20007;-84
2022/10/20 06:04:43;;;;;;;23.65;12.65;;;6.00;99.90;;;;;;6244557;22;20027;-84
2022/10/20 06:07:11;;;;;;;20.92;12.95;;;6.00;99.90;;;;;;6244998;22;20043;-85
2022/10/20 06:09:38;;;;;;;18.63;12.43;;;6.00;99.90;;;;;;6244942;22;20015;-85
2022/10/20 06:12:04;;;;;;;19.38;12.13;;;6.00;99.90;;;;;;6244384;22;20012;-85
2022/10/20 06:14:30;;;;;;;21.25;12.55;;;6.00;99.90;;;;;;6272665;22;20105;-85
2022/10/20 06:16:56;;;;;;;21.83;12.95;;;6.00;99.90;;;;;;6244871;22;20440;-85
2022/10/20 06:19:23;;;;;;;22.90;12.70;;;6.00;99.90;;;;;;6272006;22;20444;-85
2022/10/20 06:21:49;;;;;;;23.60;13.48;;;6.00;99.90;;;;;;6243968;22;20008;-85
2022/10/20 06:24:16;;;;;;;18.98;11.57;;;6.00;99.90;;;;;;6272489;22;20011;-85
2022/10/20 06:26:43;;;;;;;19.45;12.40;;;6.00;99.90;;;;;;6244168;22;20092;-86
2022/10/20 06:29:12;;;;;;;22.60;12.88;;;6.00;99.90;;;;;;6244852;22;20436;-85
2022/10/20 06:31:42;;;;;;;19.42;12.35;;;6.00;99.90;;;;;;6272297;22;20014;-85
2022/10/20 06:34:12;;;;;;;21.63;13.13;;;6.00;99.90;;;;;;6243981;22;20015;-86
2022/10/20 06:36:39;;;;;;;22.25;12.63;;;6.00;99.90;;;;;;6244369;22;20019;-86
2022/10/20 06:39:07;;;;;;;19.60;12.32;;;6.00;99.90;;;;;;6271073;22;20339;-86
2022/10/20 06:41:34;;;;;;;22.88;13.15;;;6.10;99.90;;;;;;6244278;22;20464;-86
2022/10/20 06:43:59;;;;;;;22.35;13.10;;;6.10;99.90;;;;;;6244546;22;20062;-85
2022/10/20 06:46:27;;;;;;;22.95;12.73;;;6.10;99.90;;;;;;6244749;22;20027;-87
2022/10/20 06:48:53;;;;;;;21.70;13.00;;;6.10;99.90;;;;;;6244385;22;20087;-85
2022/10/20 06:51:23;;;;;;;21.67;12.73;;;6.10;99.90;;;;;;6244110;22;20093;-88
2022/10/20 06:53:49;;;;;;;22.17;12.52;;;6.20;99.90;;;;;;6244354;22;20023;-85
2022/10/20 06:56:23;;;;;;;19.38;12.02;;;6.20;99.90;;;;;;6243549;22;20012;-85
2022/10/20 06:58:52;;;;;;;22.10;13.38;;;6.20;99.90;;;;;;6270971;22;20489;-83
2022/10/20 07:01:22;;;;;;;19.95;12.23;;;6.50;99.90;;;;;;6244151;22;20370;-83
2022/10/20 07:03:48;;;;;;;18.67;12.00;;;6.30;99.90;;;;;;6271088;22;20378;-83
2022/10/20 07:06:19;;;;;;;22.75;12.23;;;6.40;99.90;;;;;;6270560;22;20015;-82
2022/10/20 07:08:46;;;;;;;20.75;12.50;;;6.40;99.90;;;;;;6243512;22;20023;-82
2022/10/20 07:11:17;;;;;;;21.83;12.05;;;6.40;99.90;;;;;;6243855;22;20027;-82
2022/10/20 07:13:43;;;;;;;18.63;12.27;;;6.40;99.90;;;;;;6244222;22;20057;-83
2022/10/20 07:16:12;;;;;;;20.85;12.40;;;6.50;99.90;;;;;;6243155;22;20395;-83
2022/10/20 07:18:37;;;;;;;19.40;11.88;;;6.50;99.90;;;;;;6241328;22;20015;-83
2022/10/20 07:21:06;;;;;;;20.83;12.50;;;6.60;99.90;;;;;;6242017;22;20023;-82
2022/10/20 07:23:35;;;;;;;19.67;12.75;;;6.60;99.90;;;;;;6242080;22;20016;-83
2022/10/20 07:26:09;;;;;;;20.27;12.85;;;6.70;99.90;;;;;;6269677;22;20012;-84
2022/10/20 07:28:36;;;;;;;18.42;11.75;;;6.60;99.90;;;;;;6271210;22;20015;-84
2022/10/20 07:31:08;;;;;;;17.00;11.45;;;6.80;99.90;;;;;;6218277;22;20022;-84
2022/10/20 07:33:34;;;;;;;20.75;12.25;;;6.80;99.90;;;;;;6268186;22;20011;-83
2022/10/20 07:35:59;;;;;;;19.63;11.02;;;6.90;99.90;;;;;;6238667;22;20221;-85
2022/10/20 07:38:25;;;;;;;20.40;11.90;;;7.40;99.90;;;;;;6240977;22;20487;-83
2022/10/20 07:40:51;;;;;;;22.38;12.50;;;7.00;99.90;;;;;;6268677;22;20440;-83
2022/10/20 07:43:16;;;;;;;20.08;11.55;;;7.00;99.90;;;;;;6270512;22;20012;-81
2022/10/20 07:45:42;;;;;;;19.65;11.45;;;7.00;99.90;;;;;;6269667;22;20016;-82
2022/10/20 07:48:08;;;;;;;15.98;10.68;;;7.10;99.90;;;;;;6270757;22;20016;-82
2022/10/20 07:50:36;;;;;;;19.80;11.88;;;7.10;99.90;;;;;;6269984;22;20032;-82
2022/10/20 07:53:03;;;;;;;18.35;12.18;;;7.20;99.90;;;;;;6242838;22;20014;-82
2022/10/20 07:55:28;;;;;;;23.80;12.68;;;7.20;99.90;;;;;;6270414;22;20047;-83
2022/10/20 07:57:54;;;;;;;18.60;11.18;;;7.30;99.90;;;;;;6242346;22;20050;-83
2022/10/20 08:00:20;;;;;;;16.75;11.05;;;7.30;99.90;;;;;;6269867;22;20106;-83
2022/10/20 08:02:46;;;;;;;18.02;11.65;;;7.40;99.90;;;;;;6243171;22;20133;-82
2022/10/20 08:05:12;;;;;;;15.75;10.68;;;7.40;99.90;;;;;;6243316;22;20023;-82
2022/10/20 08:07:38;;;;;;;19.20;10.10;;;7.50;99.90;;;;;;6242081;22;20516;-82
2022/10/20 08:10:05;;;;;;;15.60;11.18;;;7.50;99.90;;;;;;6242102;22;20042;-83
2022/10/20 08:12:31;;;;;;;14.13;9.82;;;7.60;99.90;;;;;;6270850;22;20023;-82
2022/10/20 08:14:56;;;;;;;18.33;11.55;;;7.70;99.90;;;;;;6270322;22;20011;-82
2022/10/20 08:17:22;;;;;;;21.23;11.40;;;7.70;99.90;;;;;;6269869;22;20498;-82
2022/10/20 08:19:48;;;;;;;18.02;11.25;;;7.80;99.90;;;;;;6242142;22;20012;-82
2022/10/20 08:22:17;;;;;;;18.58;10.13;;;7.90;99.90;;;;;;6268949;22;20350;-82
2022/10/20 08:24:43;;;;;;;18.10;10.80;;;7.90;99.90;;;;;;6242216;22;20027;-82
2022/10/20 08:27:09;;;;;;;14.82;9.73;;;8.00;99.90;;;;;;6218133;22;20016;-82
2022/10/20 08:29:35;;;;;;;16.02;11.38;;;8.10;99.90;;;;;;6217985;22;20137;-82
2022/10/20 08:32:01;;;;;;;17.17;11.18;;;8.20;99.90;;;;;;6217580;22;20023;-82
2022/10/20 08:34:27;;;;;;;15.73;10.02;;;8.20;99.90;;;;;;6269874;22;20018;-82
2022/10/20 08:36:53;;;;;;;14.45;10.18;;;8.30;99.90;;;;;;6242157;22;20020;-82
2022/10/20 08:39:18;;;;;;;16.38;10.85;;;8.30;99.90;;;;;;6242991;22;20491;-82
2022/10/20 08:41:47;;;;;;;16.90;10.05;;;8.40;99.90;;;;;;6242835;22;20566;-83
2022/10/20 08:44:24;;;;;;;14.73;10.00;;;8.40;99.90;;;;;;6270321;22;20015;-82
2022/10/20 08:46:50;;;;;;;15.50;9.52;;;8.50;99.90;;;;;;6242535;22;20016;-82
2022/10/20 08:49:29;;;;;;;14.70;9.82;;;8.50;99.90;;;;;;6219354;22;20031;-82
2022/10/20 08:51:57;;;;;;;15.63;9.30;;;8.60;99.90;;;;;;6244095;22;20015;-82
2022/10/20 08:54:23;;;;;;;13.60;9.52;;;8.70;99.90;;;;;;6272367;22;20739;-82
2022/10/20 08:56:49;;;;;;;13.70;9.45;;;8.70;99.90;;;;;;6271774;22;20027;-83
2022/10/20 08:59:34;;;;;;;19.63;9.63;;;8.80;99.90;;;;;;6272032;22;20008;-82
2022/10/20 09:02:02;;;;;;;12.45;8.38;;;8.90;99.90;;;;;;6272364;22;20383;-82
2022/10/20 09:04:39;;;;;;;14.18;9.25;;;9.20;99.90;;;;;;6244601;22;20008;-83
2022/10/20 09:07:33;;;;;;;13.80;9.40;;;9.00;99.90;;;;;;6244225;22;20455;-82
2022/10/20 09:10:17;;;;;;;14.82;9.18;;;9.10;99.90;;;;;;6244847;22;20012;-82
2022/10/20 09:12:47;;;;;;;14.75;9.00;;;9.20;99.90;;;;;;6272439;22;20092;-82
2022/10/20 09:15:14;;;;;;;13.82;9.07;;;9.20;99.90;;;;;;6271734;22;20094;-82
2022/10/20 09:18:01;;;;;;;15.20;8.88;;;9.20;99.90;;;;;;6272057;22;20024;-82
2022/10/20 09:20:39;;;;;;;13.38;9.02;;;9.30;99.90;;;;;;6218954;22;20026;-82
2022/10/20 09:23:08;;;;;;;16.02;9.77;;;9.40;99.90;;;;;;6271666;22;20054;-82
2022/10/20 09:25:34;;;;;;;11.32;8.15;;;9.40;99.90;;;;;;6244000;22;20054;-82
2022/10/20 09:27:59;;;;;;;13.48;9.05;;;9.50;99.90;;;;;;6272551;22;20391;-82
2022/10/20 09:30:28;;;;;;;14.45;9.20;;;9.50;99.90;;;;;;6244552;22;20047;-83
2022/10/20 09:32:54;;;;;;;10.75;8.20;;;9.60;99.90;;;;;;6244636;22;20421;-82
2022/10/20 09:35:29;;;;;;;12.35;8.02;;;9.60;99.90;;;;;;6269729;22;20019;-83
2022/10/20 09:38:01;;;;;;;13.82;8.45;;;9.70;99.90;;;;;;6242907;22;20442;-83
2022/10/20 09:40:27;;;;;;;13.10;8.10;;;9.70;99.90;;;;;;6243902;22;20012;-82
2022/10/20 09:43:01;;;;;;;14.20;8.60;;;9.80;99.90;;;;;;6271951;22;20026;-83
2022/10/20 09:45:32;;;;;;;13.38;7.78;;;9.90;99.90;;;;;;6243405;22;20376;-83
2022/10/20 09:48:04;;;;;;;12.73;8.02;;;10.00;99.90;;;;;;6243477;22;20096;-83
2022/10/20 09:50:34;;;;;;;13.93;7.57;;;10.20;99.90;;;;;;6218325;22;20026;-82
2022/10/20 09:53:03;;;;;;;10.75;7.80;;;10.10;99.90;;;;;;6271266;22;20011;-82
2022/10/20 09:55:32;;;;;;;10.15;7.40;;;10.20;99.90;;;;;;6243563;22;20023;-82
2022/10/20 09:58:01;;;;;;;11.40;7.65;;;10.30;99.90;;;;;;6270205;22;20505;-85
2022/10/20 10:00:31;;;;;;;15.50;7.90;;;10.30;99.90;;;;;;6243040;22;20090;-83
2022/10/20 10:03:27;;;;;;;10.98;7.22;;;10.40;99.90;;;;;;6243842;22;20012;-83
2022/10/20 10:05:56;;;;;;;15.57;7.55;;;10.50;99.90;;;;;;6211376;22;20561;-83
2022/10/20 10:08:25;;;;;;;11.77;7.53;;;10.70;99.90;;;;;;6243700;22;20483;-83
2022/10/20 10:11:12;;;;;;;12.02;7.00;;;10.60;99.90;;;;;;6244110;22;20012;-83
2022/10/20 10:13:42;;;;;;;11.77;7.15;;;10.70;99.90;;;;;;6244643;22;20460;-83
2022/10/20 10:16:13;;;;;;;12.23;7.35;;;10.80;99.90;;;;;;6244030;22;20316;-83
2022/10/20 10:18:39;;;;;;;11.45;7.53;;;10.80;99.90;;;;;;6217656;22;20062;-84
2022/10/20 10:21:10;;;;;;;11.02;7.97;;;11.00;99.90;;;;;;6243976;22;20328;-85
2022/10/20 10:23:57;;;;;;;10.70;6.53;;;10.90;99.90;;;;;;6243814;22;20011;-82
2022/10/20 10:26:41;;;;;;;11.45;6.60;;;11.00;99.90;;;;;;6244353;22;20530;-82
2022/10/20 10:29:17;;;;;;;13.27;6.93;;;11.10;99.90;;;;;;6243703;22;20525;-87
2022/10/20 10:31:54;;;;;;;13.07;7.95;;;11.20;99.90;;;;;;6244020;22;20011;-84
2022/10/20 10:34:31;;;;;;;12.20;7.05;;;11.20;99.90;;;;;;6244021;22;20019;-84
2022/10/20 10:36:56;;;;;;;11.43;7.15;;;11.20;99.90;;;;;;6242714;22;20091;-85
2022/10/20 10:39:22;;;;;;;10.80;7.88;;;11.30;99.90;;;;;;6243859;22;20043;-85
2022/10/20 10:42:06;;;;;;;9.52;6.68;;;11.30;99.90;;;;;;6243502;22;20019;-84
2022/10/20 10:45:01;;;;;;;12.93;7.25;;;11.50;99.90;;;;;;6270986;22;20312;-85
2022/10/20 10:47:38;;;;;;;8.90;5.95;;;11.70;99.90;;;;;;6242100;22;20012;-83
2022/10/20 10:50:26;;;;;;;12.05;6.30;;;12.00;99.90;;;;;;6243369;22;20406;-83
2022/10/20 10:52:58;;;;;;;10.52;7.22;;;12.20;99.90;;;;;;6244136;22;20047;-82
2022/10/20 10:55:37;;;;;;;11.88;6.70;;;12.40;99.90;;;;;;6244124;22;20487;-84
2022/10/20 10:58:02;;;;;;;11.63;6.90;;;12.60;99.90;;;;;;6270697;22;20015;-81
2022/10/20 11:00:46;;;;;;;10.90;6.35;;;12.70;99.90;;;;;;6219047;22;20012;-83
2022/10/20 11:03:43;;;;;;;10.18;6.97;;;12.90;99.90;;;;;;6271900;22;20016;-84
2022/10/20 11:06:32;;;;;;;10.15;6.63;;;13.00;99.90;;;;;;6244563;22;20016;-85
2022/10/20 11:09:10;;;;;;;10.57;6.03;;;13.20;99.90;;;;;;6219596;22;20550;-84
2022/10/20 11:11:44;;;;;;;10.63;6.45;;;13.30;99.90;;;;;;6245002;22;20020;-82
2022/10/20 11:14:28;;;;;;;11.40;7.50;;;13.40;99.90;;;;;;6244753;22;20022;-83
2022/10/20 11:17:19;;;;;;;12.87;6.50;;;13.40;99.90;;;;;;6270434;22;20513;-81
2022/10/20 11:20:16;;;;;;;12.80;7.10;;;13.40;99.90;;;;;;6245047;22;20553;-82
2022/10/20 11:23:11;;;;;;;12.50;6.72;;;13.40;99.90;;;;;;6272297;22;20436;-82
2022/10/20 11:25:43;;;;;;;;;;;13.40;99.90;;;;;;6245699;22;20019;-84
2022/10/20 11:28:26;;;;;;;10.10;6.70;;;13.40;99.90;;;;;;6272386;22;19965;-84
2022/10/20 11:30:52;;;;;;;11.88;6.90;;;13.50;99.90;;;;;;6243975;22;20020;-84
2022/10/20 11:33:23;;;;;;;8.18;5.93;;;13.60;99.90;;;;;;6271851;22;20012;-84
2022/10/20 11:36:03;;;;;;;11.55;6.75;;;13.60;99.90;;;;;;6219123;22;20051;-84
2022/10/20 11:38:48;;;;;;;11.32;7.65;;;13.60;99.90;;;;;;6244407;22;20023;-84
2022/10/20 11:41:35;;;;;;;11.82;7.53;;;13.60;99.90;;;;;;6245020;22;20020;-84
2022/10/20 11:44:07;;;;;;;9.77;7.07;;;13.50;99.90;;;;;;6272403;22;20012;-85
2022/10/20 11:46:42;;;;;;;13.95;7.90;;;13.50;99.90;;;;;;6271429;22;20035;-85
2022/10/20 11:49:11;;;;;;;10.80;7.13;;;13.60;99.90;;;;;;6272493;22;20011;-85
2022/10/20 11:52:02;;;;;;;11.15;6.95;;;13.50;99.90;;;;;;6271637;22;20435;-83
2022/10/20 11:54:31;;;;;;;11.85;7.03;;;13.40;99.90;;;;;;6272399;22;20043;-83
2022/10/20 11:57:15;;;;;;;10.82;7.38;;;13.40;99.90;;;;;;6244886;22;20015;-84
2022/10/20 12:00:20;;;;;;;11.63;6.45;;;13.40;99.90;;;;;;6244222;22;20018;-85
2022/10/20 12:03:13;;;;;;;10.43;7.07;;;13.40;99.90;;;;;;6270508;22;20077;-85
2022/10/20 12:06:16;;;;;;;15.63;7.57;;;13.40;99.90;;;;;;6270273;22;20061;-84
2022/10/20 12:09:04;;;;;;;14.02;7.10;;;13.40;99.90;;;;;;6244186;22;20012;-85
2022/10/20 12:11:29;;;;;;;11.63;6.85;;;13.40;99.90;;;;;;6270261;22;20018;-85
2022/10/20 12:14:13;;;;;;;13.05;8.02;;;13.30;99.90;;;;;;6243310;22;20015;-85
2022/10/20 12:16:54;;;;;;;10.00;6.87;;;13.30;99.90;;;;;;6243891;22;20039;-85
2022/10/20 12:19:28;;;;;;;12.30;7.40;;;13.30;99.90;;;;;;6244010;22;20543;-84
2022/10/20 12:21:57;;;;;;;11.75;7.22;;;13.30;99.90;;;;;;6270601;22;20041;-84
2022/10/20 12:24:50;;;;;;;11.90;7.30;;;13.30;99.90;;;;;;6243501;22;20023;-84
2022/10/20 12:27:23;;;;;;;10.82;7.60;;;13.30;99.90;;;;;;6271341;22;20043;-85
2022/10/20 12:30:13;;;;;;;12.60;7.43;;;13.30;99.90;;;;;;6243282;22;20458;-84
2022/10/20 12:33:16;;;;;;;10.93;7.78;;;13.30;99.90;;;;;;6241616;22;20016;-85
2022/10/20 12:36:12;;;;;;;13.75;7.28;;;13.30;99.90;;;;;;6238849;23;20550;-84
2022/10/20 12:38:38;;;;;;;13.68;7.20;;;13.30;99.90;;;;;;6239416;23;20012;-84
2022/10/20 12:41:07;;;;;;;13.43;7.80;;;13.30;99.90;;;;;;6241139;22;20373;-84
2022/10/20 12:43:54;;;;;;;11.23;7.43;;;13.30;99.90;;;;;;6237634;23;20107;-84
2022/10/20 12:46:26;;;;;;;10.77;7.82;;;13.20;99.90;;;;;;6228514;22;20090;-85
2022/10/20 12:48:58;;;;;;;12.63;8.68;;;13.20;99.90;;;;;;6264516;22;20135;-85
2022/10/20 12:51:35;;;;;;;10.85;7.70;;;13.10;99.90;;;;;;6240484;22;20457;-86
2022/10/20 12:54:37;;;;;;;12.52;8.18;;;13.00;99.90;;;;;;6241007;22;20062;-84
2022/10/20 12:57:29;;;;;;;14.30;8.43;;;13.00;99.90;;;;;;6239360;22;20611;-87
2022/10/20 12:59:55;;;;;;;11.45;7.85;;;12.90;99.90;;;;;;6238681;23;20023;-87
2022/10/20 13:02:23;;;;;;;11.65;8.13;;;12.90;99.90;;;;;;6239208;23;20020;-86
2022/10/20 13:05:00;;;;;;;12.95;8.60;;;12.90;99.90;;;;;;6238260;23;20015;-87